CW8496 Weather Reports


Display with metric or nautical units.
time (UTC)temp
F
wind
direction
speed
MPH
gust
MPH
rain 1hr
in
rain 24hr
in
rain mn
in
humidity
%
barometer
mb
20240225200019 61 0.0 0.0 0.00 0.00 0.00 66 1025.6
20240225193018 62 0.0 0.0 0.00 0.00 0.00 62 1025.6
20240225190017 63 0.0 0.0 0.00 0.00 0.00 62 1025.8
20240225183017 63 0.0 0.0 0.00 0.00 0.00 61 1026.3
20240225180018 64 0.0 0.0 0.00 0.00 0.00 60 1026.2
20240225173058 64 0.0 0.0 0.00 0.00 0.00 60 1026.3
20240225170059 64 0.0 0.0 0.00 0.00 0.00 59 1026.1
20240225163017 63 0.0 0.0 0.00 0.00 0.00 60 1026.1
20240225160017 63 0.0 0.0 0.00 0.00 0.00 60 1026.3
20240225153017 63 0.0 0.0 0.00 0.00 0.00 61 1026.2
20240225150017 63 0.0 0.0 0.00 0.00 0.00 61 1026.4
20240225143018 63 0.0 0.0 0.00 0.00 0.00 60 1026.3
20240225140017 63 0.0 0.0 0.00 0.00 0.00 61 1026.2
20240225133017 64 0.0 0.0 0.00 0.00 0.00 59 1026.3
20240225130020 64 0.0 0.0 0.00 0.00 0.00 59 1026.7
20240225123018 65 0.0 0.0 0.00 0.00 0.00 59 1026.7
20240225120018 65 0.0 0.0 0.00 0.00 0.00 57 1026.9
20240225113018 66 0.0 0.0 0.00 0.00 0.00 56 1026.9
20240225110017 66 0.0 0.0 0.00 0.00 0.00 58 1026.8
20240225103019 66 0.0 0.0 0.00 0.00 0.00 59 1026.4
20240225100018 66 0.0 0.0 0.00 0.00 0.00 60 1025.7
20240225093038 66 0.0 0.0 0.00 0.00 0.00 63 1025.0
20240225090018 67 0.0 0.0 0.00 0.00 0.00 64 1024.9
20240225083018 70 0.0 0.0 0.00 0.00 0.00 60 1025.1
20240225080018 72 0.0 0.0 0.00 0.00 0.00 57 1025.3
20240225073020 73 0.0 0.0 0.00 0.00 0.00 55 1025.1
20240225070017 75 0.0 2.0 0.00 0.00 0.00 50 1025.1
20240225063018 78 270 1.0 4.0 0.00 0.00 0.00 45 1025.4
20240225060017 81 270 1.0 6.0 0.00 0.00 0.00 45 1025.9
20240225053019 80 270 1.0 7.0 0.00 0.00 0.00 50 1026.0
20240225050017 80 270 2.0 6.0 0.00 0.00 0.00 46 1026.1
20240225043017 81 270 2.0 7.0 0.00 0.00 0.00 43 1026.4
20240225040017 79 270 2.0 4.0 0.00 0.00 0.00 45 1026.3
20240225033018 79 315 2.0 9.0 0.00 0.00 0.00 53 1026.8
20240225030017 78 315 2.0 6.0 0.00 0.00 0.00 51 1027.0
20240225023017 77 0 2.0 5.0 0.00 0.00 0.00 55 1027.2
20240225020017 75 0 2.0 8.0 0.00 0.00 0.00 58 1027.5
20240225013057 75 315 2.0 5.0 0.00 0.00 0.00 61 1028.0
20240225010017 73 270 2.0 8.0 0.00 0.00 0.00 65 1028.0
20240225003017 72 315 2.0 9.0 0.00 0.00 0.00 67 1028.6
20240225000017 71 0 2.0 7.0 0.00 0.00 0.00 71 1028.6
20240224233017 69 23 2.0 6.0 0.00 0.00 0.00 73 1028.6
20240224230017 68 0 1.0 7.0 0.00 0.00 0.00 74 1028.7
20240224223017 68 0.0 4.0 0.00 0.00 0.00 74 1028.7
20240224220017 65 90 1.0 4.0 0.00 0.00 0.00 79 1028.7
20240224213017 59 113 1.0 5.0 0.00 0.00 0.00 90 1028.0
20240224210017 55 113 1.0 6.0 0.00 0.00 0.00 94 1027.2
20240224203019 54 113 2.0 7.0 0.00 0.00 0.00 94 1027.0